Weather observations for the past three days for
Newton Municipal Airport - Earl Johnson Field
Imperial (Metric)
Date Time (cdt) Wind (mph) Vis. (mi.) Weather Sky Cond. Temperature (ºF) Relative Humidity Wind Chill (°F) Heat Index (°F) Pressure Precipitation (in)
Air Dwpt 6 hour altimeter (in) sea level (mb) 1 hr 3 hr 6 hr
Max. Min.
04 21:55 NW 21 G 28 10.00 Fair and Breezy CLR 57.2 32 39% 29.7 0.0
04 21:35 N 15 10.00 A Few Clouds FEW120 59 32 36% 29.68 0.0
04 21:15 NW 20 G 28 10.00 Fair CLR 59 32 36% 29.67 0.0
04 20:55 N 18 G 31 10.00 Fair CLR 60.8 32 34% 29.65 0.0
04 20:35 N 16 G 23 10.00 Fair CLR 62.6 30.2 30% 29.63 0.0
04 20:15 N 15 G 23 10.00 Fair CLR 62.6 30.2 30% 29.63 0.0
04 19:55 N 23 G 33 10.00 Fair and Breezy CLR 66.2 30.2 26% 29.6 0.0
04 19:35 N 22 G 32 10.00 Fair and Breezy CLR 68 32 26% 29.59 0.0
04 19:15 N 16 G 31 10.00 Fair CLR 69.8 33.8 27% 29.58 0.0
04 18:55 N 22 G 31 10.00 Fair and Breezy CLR 71.6 33.8 25% 29.57 0.0
04 18:35 NW 23 G 31 10.00 Fair and Breezy CLR 73.4 33.8 23% 29.57 0.0
04 18:15 NW 22 10.00 Fair and Breezy CLR 75.2 35.6 24% 76 29.56 0.0
04 17:55 NW 20 G 29 10.00 Fair CLR 75.2 35.6 24% 76 29.55 0.0
04 17:35 N 20 G 28 10.00 Fair CLR 77 37.4 24% 77 29.54 0.0
04 17:15 N 23 G 31 10.00 Fair and Breezy CLR 78.8 39.2 24% 78 29.53 0.0
04 16:55 NW 21 G 26 10.00 Fair and Breezy CLR 80.6 41 24% 79 29.52 0.0
04 16:35 NW 23 G 30 10.00 Fair and Breezy CLR 82.4 42.8 25% 80 29.51 0.0
04 16:15 W 17 10.00 Fair CLR 82.4 37.4 20% 80 29.51 0.0
04 15:55 W 17 G 24 10.00 Fair CLR 84.2 35.6 18% 81 29.5 0.0
04 15:35 W 18 G 25 10.00 Fair CLR 82.4 35.6 19% 80 29.51 0.0
04 15:15 W 24 G 32 10.00 Fair and Breezy CLR 82.4 37.4 20% 80 29.52 0.0
04 14:55 W 18 G 32 10.00 Fair CLR 82.4 39.2 21% 80 29.52 0.0
04 14:35 W 17 G 30 10.00 Fair CLR 82.4 41 23% 80 29.52 0.0
04 14:15 W 20 10.00 Fair CLR 82.4 41 23% 80 29.52 0.0
04 13:55 NW 21 G 26 10.00 A Few Clouds and Breezy FEW090 82.4 41 23% 80 29.52 0.0
04 13:35 W 21 10.00 A Few Clouds and Breezy FEW090 80.6 42.8 26% 79 29.53 0.0
04 13:15 W 16 G 24 10.00 Fair CLR 80.6 42.8 26% 79 29.53 0.0
04 12:55 W 16 G 26 0.00 Fair CLR 82.4 41 23% 80 29.53 0.0
04 12:35 W 14 G 21 10.00 Fair CLR 80.6 42.8 26% 79 29.53 0.0
04 12:15 W 17 10.00 Fair CLR 80.6 42.8 26% 79 29.54 0.0
04 11:55 SW 15 10.00 Fair CLR 78.8 44.6 30% 79 29.54 0.0
04 11:35 W 10 G 18 10.00 Fair CLR 78.8 44.6 30% 79 29.54 0.0
04 11:15 SW 8 10.00 Fair CLR 75.2 46.4 36% 77 29.54 0.0
04 10:55 W 9 G 18 10.00 Fair CLR 75.2 46.4 36% 77 29.55 0.0
04 10:35 SW 14 10.00 Fair CLR 73.4 46.4 38% 29.55 0.0
04 10:15 SW 12 10.00 Fair CLR 71.6 46.4 41% 29.56 0.0
04 09:55 SW 10 10.00 Fair CLR 69.8 44.6 40% 29.57 0.0
04 09:35 SW 9 10.00 Fair CLR 68 44.6 43% 29.57 0.0
04 09:15 SW 8 10.00 Fair CLR 66.2 44.6 46% 29.58 0.0
04 08:55 SW 7 10.00 Fair CLR 64.4 44.6 49% 29.58 0.0
04 08:35 S 7 10.00 Fair CLR 62.6 42.8 49% 29.58 0.0
04 08:15 S 6 10.00 Fair CLR 59 42.8 55% 29.59 0.0
04 07:55 S 6 10.00 Fair CLR 57.2 41 55% 29.59 0.0
04 07:35 Calm 10.00 Fair CLR 55.4 41 59% 29.59 0.0
04 07:15 SW 3 10.00 Fair CLR 53.6 41 63% 29.6 0.0
04 06:55 S 5 10.00 Fair CLR 50 41 71% 49 29.6 0.0
04 06:35 S 3 10.00 Fair CLR 48.2 39.2 71% 29.59 0.0
04 06:15 SW 5 10.00 Fair CLR 50 37.4 62% 49 29.61 0.0
04 05:55 SW 7 10.00 Fair CLR 51.8 37.4 58% 29.61 0.0
04 05:35 S 6 0.00 Fair CLR 48.2 37.4 66% 46 29.61 0.0
04 05:15 S 6 10.00 Fair CLR 48.2 37.4 66% 46 29.62 0.0
04 04:55 S 6 10.00 Fair CLR 50 37.4 62% 48 29.62 0.0
04 04:15 Calm 10.00 Fair CLR 50 37.4 62% 29.64 0.0
04 03:55 S 3 10.00 Fair CLR 50 35.6 58% 29.64 0.0
04 03:35 S 5 10.00 Fair CLR 50 35.6 58% 49 29.65 0.0
04 03:15 SW 5 10.00 Fair CLR 51.8 35.6 54% 29.65 0.0
04 02:55 SW 6 10.00 Fair CLR 51.8 35.6 54% 29.66 0.0
04 02:35 SW 5 10.00 Fair CLR 51.8 33.8 50% 29.67 0.0
04 02:15 SW 5 10.00 Fair CLR 53.6 33.8 47% 29.68 0.0
04 01:55 SW 3 10.00 Fair CLR 53.6 32 44% 29.69 0.0
04 01:35 SW 5 10.00 Fair CLR 53.6 32 44% 29.69 0.0
04 01:15 Calm 10.00 Fair CLR 53.6 32 44% 29.7 0.0
04 00:55 S 3 10.00 Fair CLR 53.6 32 44% 29.7 0.0
04 00:35 SW 5 10.00 Fair CLR 55.4 32 41% 29.71 0.0
04 00:15 SW 5 10.00 Fair CLR 57.2 30.2 36% 29.71 0.0
03 23:55 SW 6 10.00 Fair CLR 57.2 30.2 36% 29.72 0.0
03 23:35 SW 6 10.00 Fair CLR 57.2 32 39% 29.72 0.0
03 23:15 SW 3 10.00 Fair CLR 60.8 30.2 31% 29.73 0.0
03 22:55 SW 3 10.00 Fair CLR 60.8 30.2 31% 29.73 0.0
03 22:35 SW 5 10.00 Fair CLR 62.6 30.2 30% 29.74 0.0
03 22:15 W 6 10.00 Fair CLR 60.8 30.2 31% 29.75 0.0
03 21:55 W 3 10.00 Fair CLR 62.6 30.2 30% 29.75 0.0
03 21:35 W 5 10.00 Fair CLR 64.4 30.2 28% 29.74 0.0
03 21:15 W 5 10.00 Fair CLR 66.2 30.2 26% 29.74 0.0
03 20:55 W 5 10.00 Fair CLR 66.2 30.2 26% 29.74 0.0
03 20:35 W 6 10.00 Fair CLR 66.2 30.2 26% 29.74 0.0
03 20:15 W 6 10.00 Fair CLR 68 30.2 24% 29.74 0.0
03 19:55 W 6 10.00 Fair CLR 69.8 30.2 23% 29.73 0.0
03 19:35 NW 6 10.00 Fair CLR 71.6 28.4 20% 29.73 0.0
03 19:15 W 6 10.00 Fair CLR 73.4 28.4 19% 29.73 0.0
03 18:55 W 12 10.00 Fair CLR 73.4 26.6 17% 29.74 0.0
03 18:35 W 10 G 18 10.00 Fair CLR 75.2 28.4 18% 76 29.74 0.0
03 18:15 NW 14 10.00 Fair CLR 75.2 26.6 16% 76 29.73 0.0
03 17:55 W 14 10.00 Fair CLR 75.2 26.6 16% 76 29.74 0.0
03 17:35 NW 15 10.00 Fair CLR 75.2 28.4 18% 76 29.74 0.0
03 17:15 W 12 G 24 10.00 Fair CLR 75.2 28.4 18% 76 29.74 0.0
03 16:55 W 14 G 21 10.00 Fair CLR 75.2 30.2 19% 76 29.74 0.0
03 16:35 W 15 G 22 10.00 Fair CLR 75.2 30.2 19% 76 29.74 0.0
03 16:15 W 13 10.00 Fair CLR 73.4 30.2 20% 29.74 0.0
03 15:55 W 16 G 23 10.00 Fair CLR 73.4 30.2 20% 29.75 0.0
03 15:35 NW 16 10.00 Fair CLR 73.4 32 22% 29.75 0.0
03 15:15 NW 18 10.00 Fair CLR 75.2 32 21% 76 29.75 0.0
03 14:55 NW 16 10.00 Fair CLR 75.2 33.8 22% 76 29.75 0.0
03 14:35 NW 16 10.00 Fair CLR 75.2 33.8 22% 76 29.76 0.0
03 14:15 NW 17 G 23 10.00 Fair CLR 75.2 33.8 22% 76 29.76 0.0
03 13:35 NW 17 G 30 10.00 Fair CLR 75.2 33.8 22% 76 29.76 0.0
03 13:15 NW 18 G 26 10.00 Fair CLR 73.4 35.6 25% 29.76 0.0
03 12:55 NW 18 10.00 Fair CLR 73.4 35.6 25% 29.76 0.0
03 12:35 W 15 G 29 10.00 Fair CLR 73.4 37.4 27% 29.77 0.0
03 12:15 W 18 G 24 10.00 Fair CLR 71.6 39.2 31% 29.77 0.0
03 11:55 W 16 G 22 10.00 Fair CLR 69.8 39.2 33% 29.78 0.0
03 11:35 W 18 10.00 Fair CLR 69.8 39.2 33% 29.78 0.0
03 11:15 W 18 10.00 Fair CLR 68 39.2 35% 29.78 0.0
03 10:55 W 20 10.00 Fair CLR 68 37.4 33% 29.79 0.0
03 10:35 W 16 G 23 10.00 Fair CLR 64.4 37.4 37% 29.79 0.0
03 10:15 W 17 G 23 10.00 Fair CLR 64.4 37.4 37% 29.78 0.0
03 09:55 SW 20 G 29 10.00 Fair CLR 62.6 35.6 37% 29.79 0.0
03 09:35 W 20 G 26 10.00 Fair CLR 60.8 35.6 39% 29.8 0.0
03 09:15 SW 23 10.00 Fair and Breezy CLR 59 35.6 42% 29.8 0.0
03 08:55 SW 18 G 25 10.00 Fair CLR 57.2 35.6 44% 29.81 0.0
03 08:35 SW 16 G 22 10.00 Fair CLR 55.4 35.6 47% 29.81 0.0
03 08:15 SW 17 10.00 Fair CLR 53.6 33.8 47% 29.81 0.0
03 07:35 S 16 10.00 Fair CLR 51.8 33.8 50% 29.82 0.0
03 07:15 S 13 G 18 10.00 Fair CLR 51.8 33.8 50% 29.83 0.0
03 06:55 SW 16 10.00 Fair CLR 51.8 32 47% 29.83 0.0
03 06:30 S 14 G 21 10.00 A Few Clouds FEW120 51.8 32 47% 29.83 0.0
03 06:15 S 15 10.00 Mostly Cloudy BKN120 51.8 32 47% 29.83 0.0
03 05:55 S 16 G 23 10.00 Mostly Cloudy FEW070 BKN100 BKN120 53.6 32 44% 29.84 0.0
03 05:35 S 17 G 23 10.00 Overcast FEW048 SCT080 OVC110 53.6 32 44% 29.84 0.0
03 05:15 S 17 G 25 10.00 Mostly Cloudy BKN120 53.6 32 44% 29.85 0.0
03 04:55 S 17 G 23 10.00 Mostly Cloudy FEW080 BKN110 51.8 32 47% 29.85 0.0
03 04:35 S 16 10.00 Overcast BKN100 OVC120 51.8 32 47% 29.85 0.0
03 04:15 S 14 10.00 Mostly Cloudy FEW080 BKN095 BKN120 51.8 32 47% 29.88 0.0
03 03:55 S 16 10.00 Overcast SCT075 BKN090 OVC120 51.8 32 47% 29.88 0.0
03 03:35 S 14 G 21 10.00 Overcast BKN095 OVC110 53.6 30.2 41% 29.9 0.0
03 03:15 S 12 G 17 10.00 Mostly Cloudy SCT095 BKN120 51.8 30.2 44% 29.91 0.0
03 02:55 S 13 10.00 Partly Cloudy FEW100 SCT120 51.8 30.2 44% 29.9 0.0
03 02:35 S 13 10.00 Mostly Cloudy FEW100 BKN120 51.8 30.2 44% 29.9 0.0
03 02:15 S 14 10.00 A Few Clouds FEW120 51.8 30.2 44% 29.91 0.0
03 01:55 S 14 10.00 A Few Clouds FEW110 51.8 30.2 44% 29.92 0.0
03 01:35 S 13 10.00 Partly Cloudy SCT110 50 32 50% 46 29.93 0.0
03 01:15 S 12 10.00 Partly Cloudy SCT110 50 32 50% 46 29.93 0.0
03 00:55 S 10 10.00 Overcast OVC110 50 32 50% 46 29.94 0.0
03 00:35 S 9 10.00 Mostly Cloudy BKN110 50 32 50% 47 29.94 0.0
03 00:15 S 9 10.00 Partly Cloudy SCT110 50 32 50% 47 29.95 0.0
02 23:55 S 10 10.00 Fair CLR 48.2 32 54% 44 29.95 0.0
02 23:35 S 9 10.00 Fair CLR 48.2 33.8 58% 45 29.96 0.0
02 23:15 S 9 10.00 A Few Clouds FEW120 50 33.8 54% 47 29.97 0.0
02 22:55 S 9 10.00 A Few Clouds FEW120 48.2 32 54% 45 29.97 0.0
02 22:35 S 9 10.00 A Few Clouds FEW120 48.2 32 54% 45 29.98 0.0
02 22:15 S 9 10.00 A Few Clouds FEW120 50 32 50% 47 29.99 0.0
02 21:55 S 9 10.00 Fair CLR 50 30.2 47% 47 29.99 0.0
02 21:35 S 8 10.00 Fair CLR 50 30.2 47% 47 29.99 0.0
02 21:15 S 7 10.00 Fair CLR 51.8 30.2 44% 29.99 0.0
02 20:55 S 7 10.00 Fair CLR 51.8 30.2 44% 29.99 0.0
02 20:35 S 7 10.00 Fair CLR 53.6 28.4 38% 29.99 0.0
02 20:15 S 8 10.00 Fair CLR 55.4 28.4 36% 29.99 0.0
02 19:55 SW 7 10.00 Fair CLR 57.2 28.4 33% 29.99 0.0
02 19:35 SW 9 10.00 Fair CLR 59 26.6 29% 29.99 0.0
02 19:15 SW 8 10.00 Fair CLR 60.8 26.6 27% 30 0.0
02 18:35 SW 13 10.00 Fair CLR 60.8 26.6 27% 30.01 0.0
02 18:15 W 9 10.00 Fair CLR 60.8 24.8 25% 30.01 0.0
02 17:55 W 9 G 16 10.00 Fair CLR 60.8 24.8 25% 30.02 0.0
02 17:35 W 12 10.00 Fair CLR 62.6 24.8 24% 30.03 0.0
02 17:15 W 9 10.00 Fair CLR 60.8 23 23% 30.03 0.0
02 16:55 W 12 10.00 Fair CLR 60.8 24.8 25% 30.04 0.0
02 16:35 W 8 G 23 10.00 Fair CLR 60.8 23 23% 30.04 0.0
02 16:15 W 9 G 17 10.00 Fair CLR 60.8 24.8 25% 30.05 0.0
02 15:35 W 10 G 16 10.00 Fair CLR 60.8 24.8 25% 30.07 0.0
02 15:15 W 13 10.00 Fair CLR 59 24.8 27% 30.07 0.0
02 14:55 Calm 10.00 Fair CLR 59 23 25% 30.08 0.0
02 14:35 W 14 G 21 10.00 Fair CLR 59 24.8 27% 30.09 0.0
02 14:15 Vrbl 6 G 14 10.00 Fair CLR 59 24.8 27% 30.09 0.0
02 13:35 SW 9 10.00 Fair CLR 57.2 23 27% 30.11 0.0
02 13:15 Vrbl 7 G 15 10.00 Fair CLR 57.2 23 27% 30.11 0.0
02 12:55 W 8 G 17 10.00 Fair CLR 57.2 23 27% 30.12 0.0
02 12:35 Calm 10.00 Fair CLR 55.4 24.8 31% 30.13 0.0
02 12:15 SW 5 G 15 10.00 Fair CLR 55.4 23 28% 30.13 0.0
02 11:55 Vrbl 7 10.00 Fair CLR 55.4 24.8 31% 30.13 0.0
02 11:35 Calm 10.00 Fair CLR 53.6 23 30% 30.14 0.0
02 11:15 Vrbl 5 G 12 10.00 Fair CLR 53.6 23 30% 30.14 0.0
02 10:55 NW 6 G 12 10.00 Fair CLR 53.6 23 30% 30.15 0.0
02 10:35 NW 7 G 13 0.00 Fair CLR 53.6 23 30% 30.15 0.0
02 10:15 Calm 10.00 Fair CLR 53.6 23 30% 30.15 0.0
02 09:55 W 7 10.00 Fair CLR 51.8 23 32% 30.14 0.0
02 09:35 W 5 10.00 Fair CLR 51.8 24.8 35% 30.15 0.0
02 09:15 SW 5 10.00 Fair CLR 50 26.6 40% 49 30.15 0.0
02 08:55 SW 3 10.00 Fair CLR 48.2 30.2 50% 30.15 0.0
02 08:35 Calm 10.00 Fair CLR 48.2 32 54% 30.14 0.0
02 07:55 Calm 10.00 Fair CLR 42.8 30.2 61% 30.14 0.0
02 07:35 N 5 10.00 Fair CLR 41 28.4 61% 38 30.14 0.0
02 07:15 Calm 10.00 Fair CLR 39.2 30.2 70% 30.14 0.0
02 06:55 Calm 10.00 Fair CLR 37.4 28.4 70% 30.13 0.0
02 06:35 N 5 10.00 Fair CLR 37.4 26.6 65% 34 30.12 0.0
02 06:15 NE 7 10.00 Fair CLR 37.4 26.6 65% 33 30.12 0.0
02 05:55 NE 6 10.00 Fair CLR 37.4 26.6 65% 33 30.12 0.0
02 05:35 NE 7 10.00 Fair CLR 37.4 28.4 70% 33 30.11 0.0
02 05:15 NE 7 10.00 Fair CLR 37.4 28.4 70% 33 30.11 0.0
02 04:55 NE 5 10.00 Fair CLR 39.2 26.6 61% 36 30.11 0.0
02 04:35 N 6 10.00 Partly Cloudy SCT075 39.2 26.6 61% 36 30.11 0.0
02 04:15 N 6 10.00 Mostly Cloudy BKN075 39.2 26.6 61% 36 30.11 0.0
02 03:55 N 6 10.00 Fair CLR 39.2 26.6 61% 36 30.11 0.0
02 03:35 N 7 10.00 Fair CLR 39.2 28.4 65% 35 30.1 0.0
02 03:15 NE 7 10.00 Fair CLR 41 28.4 61% 37 30.1 0.0
02 02:55 N 8 10.00 Fair CLR 41 28.4 61% 36 30.1 0.0
02 02:35 N 8 10.00 Fair CLR 41 30.2 66% 36 30.1 0.0
02 02:15 N 6 10.00 A Few Clouds FEW080 42.8 30.2 61% 40 30.1 0.0
02 01:55 N 6 10.00 Mostly Cloudy BKN080 42.8 32 66% 40 30.11 0.0
02 01:35 N 6 10.00 Overcast FEW070 OVC085 44.6 32 61% 42 30.11 0.0
02 01:15 NE 5 10.00 Overcast OVC085 46.4 30.2 53% 45 30.11 0.0
02 00:55 NE 5 10.00 Overcast SCT070 OVC085 46.4 30.2 53% 45 30.1 0.0
02 00:35 NE 6 10.00 Overcast BKN070 OVC085 46.4 30.2 53% 44 30.1 0.0
02 00:15 NE 5 10.00 Overcast SCT070 OVC085 46.4 32 57% 45 30.1 0.0
01 23:55 E 6 10.00 Overcast SCT070 BKN080 OVC090 46.4 33.8 62% 44 30.1 0.0
01 23:35 N 6 0.00 Overcast FEW070 BKN080 OVC090 46.4 32 57% 44 30.09 0.0
01 23:15 N 6 10.00 Overcast FEW060 SCT075 OVC085 48.2 32 54% 46 30.09 0.0
01 22:55 N 7 10.00 Overcast BKN070 OVC080 48.2 30.2 50% 46 30.09 0.0
01 22:35 N 7 10.00 Overcast BKN070 OVC080 48.2 32 54% 46 30.09 0.0
01 22:15 N 7 10.00 Overcast FEW055 BKN070 OVC090 48.2 32 54% 46 30.08 0.0
Date Time (cdt) Wind (mph) Vis. (mi.) Weather Sky Cond. Air Dwpt Max. Min. Relative Humidity Wind Chill (°F) Heat Index (°F) altimeter (in) sea level (mb) 1 hr 3 hr 6 hr
6 hour
Temperature (ºF) Pressure Precipitation (in)